sensor_id;sensor_type;location;lat;lon;timestamp;pressure;altitude;pressure_sealevel;temperature;humidity
16255;BME280;8235;52.198;9.904;2023-07-20T00:02:24;100508.28;;;17.18;81.20
16255;BME280;8235;52.198;9.904;2023-07-20T00:04:51;100497.66;;;17.16;81.22
16255;BME280;8235;52.198;9.904;2023-07-20T00:07:17;100510.41;;;17.14;81.28
16255;BME280;8235;52.198;9.904;2023-07-20T00:09:44;100503.47;;;17.12;81.30
16255;BME280;8235;52.198;9.904;2023-07-20T00:12:12;100499.22;;;17.09;81.38
16255;BME280;8235;52.198;9.904;2023-07-20T00:14:38;100502.19;;;17.06;81.45
16255;BME280;8235;52.198;9.904;2023-07-20T00:17:05;100497.94;;;17.04;81.75
16255;BME280;8235;52.198;9.904;2023-07-20T00:19:32;100498.78;;;17.04;81.96
16255;BME280;8235;52.198;9.904;2023-07-20T00:22:00;100495.38;;;17.02;82.10
16255;BME280;8235;52.198;9.904;2023-07-20T00:24:27;100490.00;;;17.02;82.28
16255;BME280;8235;52.198;9.904;2023-07-20T00:26:53;100489.19;;;17.02;82.01
16255;BME280;8235;52.198;9.904;2023-07-20T00:29:21;100487.47;;;17.00;81.91
16255;BME280;8235;52.198;9.904;2023-07-20T00:31:47;100486.78;;;16.98;81.91
16255;BME280;8235;52.198;9.904;2023-07-20T00:34:14;100479.56;;;16.99;81.79
16255;BME280;8235;52.198;9.904;2023-07-20T00:36:40;100480.69;;;16.96;81.79
16255;BME280;8235;52.198;9.904;2023-07-20T00:39:07;100485.22;;;16.96;81.47
16255;BME280;8235;52.198;9.904;2023-07-20T00:41:34;100486.34;;;16.93;81.53
16255;BME280;8235;52.198;9.904;2023-07-20T00:44:00;100485.63;;;16.91;81.51
16255;BME280;8235;52.198;9.904;2023-07-20T00:46:28;100484.91;;;16.89;81.20
16255;BME280;8235;52.198;9.904;2023-07-20T00:48:55;100483.22;;;16.88;81.40
16255;BME280;8235;52.198;9.904;2023-07-20T00:51:23;100477.25;;;16.85;81.13
16255;BME280;8235;52.198;9.904;2023-07-20T00:53:50;100481.97;;;16.83;81.11
16255;BME280;8235;52.198;9.904;2023-07-20T00:56:16;100483.22;;;16.79;81.14
16255;BME280;8235;52.198;9.904;2023-07-20T00:58:43;100484.34;;;16.76;81.03
16255;BME280;8235;52.198;9.904;2023-07-20T01:01:10;100495.53;;;16.72;81.29
16255;BME280;8235;52.198;9.904;2023-07-20T01:03:38;100491.13;;;16.71;81.49
16255;BME280;8235;52.198;9.904;2023-07-20T01:06:12;100485.03;;;16.69;81.61
16255;BME280;8235;52.198;9.904;2023-07-20T01:08:45;100486.16;;;16.66;81.54
16255;BME280;8235;52.198;9.904;2023-07-20T01:11:16;100492.72;;;16.63;81.71
16255;BME280;8235;52.198;9.904;2023-07-20T01:13:45;100496.34;;;16.62;81.83
16255;BME280;8235;52.198;9.904;2023-07-20T01:16:12;100488.41;;;16.61;82.20
16255;BME280;8235;52.198;9.904;2023-07-20T01:18:39;100495.63;;;16.60;82.42
16255;BME280;8235;52.198;9.904;2023-07-20T01:21:09;100491.25;;;16.59;82.21
16255;BME280;8235;52.198;9.904;2023-07-20T01:24:17;100493.22;;;16.57;82.27
16255;BME280;8235;52.198;9.904;2023-07-20T01:27:00;100495.19;;;16.55;82.11
16255;BME280;8235;52.198;9.904;2023-07-20T01:29:54;100491.06;;;16.51;82.08
16255;BME280;8235;52.198;9.904;2023-07-20T01:32:29;100491.34;;;16.48;82.29
16255;BME280;8235;52.198;9.904;2023-07-20T01:34:58;100487.97;;;16.46;82.47
16255;BME280;8235;52.198;9.904;2023-07-20T01:37:26;100494.34;;;16.45;82.92
16255;BME280;8235;52.198;9.904;2023-07-20T01:39:55;100498.00;;;16.44;83.25
16255;BME280;8235;52.198;9.904;2023-07-20T01:42:22;100497.03;;;16.45;83.09
16255;BME280;8235;52.198;9.904;2023-07-20T01:44:50;100497.03;;;16.45;83.15
16255;BME280;8235;52.198;9.904;2023-07-20T01:47:17;100486.28;;;16.45;83.19
16255;BME280;8235;52.198;9.904;2023-07-20T01:49:45;100497.31;;;16.42;82.97
16255;BME280;8235;52.198;9.904;2023-07-20T01:52:12;100494.75;;;16.41;83.05
16255;BME280;8235;52.198;9.904;2023-07-20T01:54:38;100490.50;;;16.38;82.89
16255;BME280;8235;52.198;9.904;2023-07-20T01:57:05;100491.47;;;16.37;83.01
16255;BME280;8235;52.198;9.904;2023-07-20T01:59:31;100484.53;;;16.35;82.73
16255;BME280;8235;52.198;9.904;2023-07-20T02:01:58;100489.91;;;16.35;82.90
16255;BME280;8235;52.198;9.904;2023-07-20T02:04:24;100483.69;;;16.34;83.07
16255;BME280;8235;52.198;9.904;2023-07-20T02:06:52;100491.75;;;16.34;83.17
16255;BME280;8235;52.198;9.904;2023-07-20T02:09:18;100483.56;;;16.36;83.36
16255;BME280;8235;52.198;9.904;2023-07-20T02:11:45;100488.06;;;16.35;83.52
16255;BME280;8235;52.198;9.904;2023-07-20T02:14:11;100489.91;;;16.35;83.32
16255;BME280;8235;52.198;9.904;2023-07-20T02:16:38;100489.19;;;16.32;83.35
16255;BME280;8235;52.198;9.904;2023-07-20T02:19:04;100490.34;;;16.30;83.41
16255;BME280;8235;52.198;9.904;2023-07-20T02:21:32;100486.94;;;16.28;83.67
16255;BME280;8235;52.198;9.904;2023-07-20T02:24:00;100491.59;;;16.26;83.83
16255;BME280;8235;52.198;9.904;2023-07-20T02:26:26;100490.03;;;16.23;83.78
16255;BME280;8235;52.198;9.904;2023-07-20T02:28:53;100488.47;;;16.21;84.19
16255;BME280;8235;52.198;9.904;2023-07-20T02:31:19;100485.06;;;16.19;84.47
16255;BME280;8235;52.198;9.904;2023-07-20T02:33:46;100493.13;;;16.19;84.46
16255;BME280;8235;52.198;9.904;2023-07-20T02:36:12;100493.25;;;16.17;84.98
16255;BME280;8235;52.198;9.904;2023-07-20T02:38:39;100496.09;;;16.16;85.13
16255;BME280;8235;52.198;9.904;2023-07-20T02:41:07;100501.59;;;16.14;84.99
16255;BME280;8235;52.198;9.904;2023-07-20T02:43:33;100493.66;;;16.13;85.34
16255;BME280;8235;52.198;9.904;2023-07-20T02:46:00;100493.66;;;16.13;85.62
16255;BME280;8235;52.198;9.904;2023-07-20T02:48:26;100496.34;;;16.13;85.52
16255;BME280;8235;52.198;9.904;2023-07-20T02:50:52;100496.34;;;16.13;85.42
16255;BME280;8235;52.198;9.904;2023-07-20T02:53:19;100496.34;;;16.13;86.05
16255;BME280;8235;52.198;9.904;2023-07-20T02:55:45;100501.59;;;16.14;85.60
16255;BME280;8235;52.198;9.904;2023-07-20T02:58:14;100497.78;;;16.17;85.71
16255;BME280;8235;52.198;9.904;2023-07-20T03:00:42;100500.34;;;16.18;86.01
16255;BME280;8235;52.198;9.904;2023-07-20T03:03:08;100498.63;;;16.17;85.64
16255;BME280;8235;52.198;9.904;2023-07-20T03:05:35;100504.88;;;16.18;85.85
16255;BME280;8235;52.198;9.904;2023-07-20T03:08:03;100493.25;;;16.17;86.10
16255;BME280;8235;52.198;9.904;2023-07-20T03:10:31;100507.69;;;16.16;86.39
16255;BME280;8235;52.198;9.904;2023-07-20T03:12:58;100502.31;;;16.16;86.13
16255;BME280;8235;52.198;9.904;2023-07-20T03:15:25;100503.16;;;16.17;86.21
16255;BME280;8235;52.198;9.904;2023-07-20T03:17:52;100510.38;;;16.16;86.22
16255;BME280;8235;52.198;9.904;2023-07-20T03:20:19;100504.28;;;16.14;86.26
16255;BME280;8235;52.198;9.904;2023-07-20T03:22:45;100504.41;;;16.13;86.24
16255;BME280;8235;52.198;9.904;2023-07-20T03:25:12;100505.44;;;16.12;86.55
16255;BME280;8235;52.198;9.904;2023-07-20T03:27:39;100501.03;;;16.11;86.41
16255;BME280;8235;52.198;9.904;2023-07-20T03:30:06;100494.81;;;16.10;86.22
16255;BME280;8235;52.198;9.904;2023-07-20T03:32:36;100488.84;;;16.07;86.11
16255;BME280;8235;52.198;9.904;2023-07-20T03:35:02;100483.03;;;16.02;86.00
16255;BME280;8235;52.198;9.904;2023-07-20T03:37:30;100495.16;;;15.96;86.26
16255;BME280;8235;52.198;9.904;2023-07-20T03:39:56;100501.94;;;15.90;86.78
16255;BME280;8235;52.198;9.904;2023-07-20T03:42:23;100509.28;;;15.88;87.50
16255;BME280;8235;52.198;9.904;2023-07-20T03:44:49;100506.72;;;15.87;87.80
16255;BME280;8235;52.198;9.904;2023-07-20T03:47:16;100506.72;;;15.87;88.35
16255;BME280;8235;52.198;9.904;2023-07-20T03:49:44;100498.53;;;15.88;88.25
16255;BME280;8235;52.198;9.904;2023-07-20T03:52:10;100497.69;;;15.88;88.09
16255;BME280;8235;52.198;9.904;2023-07-20T03:54:37;100495.97;;;15.87;88.21
16255;BME280;8235;52.198;9.904;2023-07-20T03:57:04;100487.06;;;15.86;87.76
16255;BME280;8235;52.198;9.904;2023-07-20T03:59:30;100492.72;;;15.83;87.96
16255;BME280;8235;52.198;9.904;2023-07-20T04:01:57;100499.06;;;15.82;87.85
16255;BME280;8235;52.198;9.904;2023-07-20T04:04:23;100501.03;;;15.80;88.58
16255;BME280;8235;52.198;9.904;2023-07-20T04:06:51;100500.03;;;15.81;88.95
16255;BME280;8235;52.198;9.904;2023-07-20T04:09:17;100501.03;;;15.80;89.31
16255;BME280;8235;52.198;9.904;2023-07-20T04:11:44;100498.22;;;15.82;89.41
16255;BME280;8235;52.198;9.904;2023-07-20T04:14:10;100502.72;;;15.81;89.48
16255;BME280;8235;52.198;9.904;2023-07-20T04:16:37;100502.72;;;15.81;90.26
16255;BME280;8235;52.198;9.904;2023-07-20T04:19:03;100505.41;;;15.81;90.51
16255;BME280;8235;52.198;9.904;2023-07-20T04:21:30;100504.56;;;15.81;90.41
16255;BME280;8235;52.198;9.904;2023-07-20T04:23:58;100503.72;;;15.80;90.51
16255;BME280;8235;52.198;9.904;2023-07-20T04:26:24;100510.78;;;15.81;90.96
16255;BME280;8235;52.198;9.904;2023-07-20T04:28:51;100515.19;;;15.82;90.93
16255;BME280;8235;52.198;9.904;2023-07-20T04:31:18;100520.28;;;15.85;90.59
16255;BME280;8235;52.198;9.904;2023-07-20T04:33:44;100515.63;;;15.87;90.71
16255;BME280;8235;52.198;9.904;2023-07-20T04:36:11;100525.41;;;15.88;90.29
16255;BME280;8235;52.198;9.904;2023-07-20T04:38:38;100524.28;;;15.91;90.82
16255;BME280;8235;52.198;9.904;2023-07-20T04:41:06;100523.00;;;15.95;91.05
16255;BME280;8235;52.198;9.904;2023-07-20T04:43:33;100531.53;;;16.00;91.84
16255;BME280;8235;52.198;9.904;2023-07-20T04:45:59;100531.13;;;16.05;92.02
16255;BME280;8235;52.198;9.904;2023-07-20T04:48:26;100533.69;;;16.06;92.43
16255;BME280;8235;52.198;9.904;2023-07-20T04:50:52;100543.31;;;16.09;92.06
16255;BME280;8235;52.198;9.904;2023-07-20T04:53:18;100535.25;;;16.09;92.23
16255;BME280;8235;52.198;9.904;2023-07-20T04:55:49;100533.53;;;16.08;92.36
16255;BME280;8235;52.198;9.904;2023-07-20T04:58:18;100539.06;;;16.06;92.09
16255;BME280;8235;52.198;9.904;2023-07-20T05:00:44;100542.72;;;16.05;92.27
16255;BME280;8235;52.198;9.904;2023-07-20T05:03:11;100550.78;;;16.05;92.23
16255;BME280;8235;52.198;9.904;2023-07-20T05:05:37;100545.41;;;16.05;92.44
16255;BME280;8235;52.198;9.904;2023-07-20T05:08:04;100546.53;;;16.03;92.40
16255;BME280;8235;52.198;9.904;2023-07-20T05:10:31;100546.53;;;16.03;92.94
16255;BME280;8235;52.198;9.904;2023-07-20T05:12:57;100548.34;;;16.02;93.14
16255;BME280;8235;52.198;9.904;2023-07-20T05:15:25;100551.16;;;16.01;92.91
16255;BME280;8235;52.198;9.904;2023-07-20T05:17:51;100557.53;;;16.00;92.72
16255;BME280;8235;52.198;9.904;2023-07-20T05:20:19;100543.63;;;15.94;92.69
16255;BME280;8235;52.198;9.904;2023-07-20T05:22:45;100546.88;;;15.88;92.21
16255;BME280;8235;52.198;9.904;2023-07-20T05:25:12;100552.66;;;15.84;91.93
16255;BME280;8235;52.198;9.904;2023-07-20T05:27:39;100563.78;;;15.79;91.67
16255;BME280;8235;52.198;9.904;2023-07-20T05:30:06;100560.66;;;15.74;91.41
16255;BME280;8235;52.198;9.904;2023-07-20T05:32:34;100565.31;;;15.72;91.68
16255;BME280;8235;52.198;9.904;2023-07-20T05:35:01;100560.91;;;15.71;91.95
16255;BME280;8235;52.198;9.904;2023-07-20T05:37:27;100563.72;;;15.70;92.03
16255;BME280;8235;52.198;9.904;2023-07-20T05:39:54;100569.22;;;15.68;92.08
16255;BME280;8235;52.198;9.904;2023-07-20T05:42:20;100568.25;;;15.69;92.24
16255;BME280;8235;52.198;9.904;2023-07-20T05:44:47;100561.19;;;15.68;92.58
16255;BME280;8235;52.198;9.904;2023-07-20T05:47:15;100569.38;;;15.67;92.33
16255;BME280;8235;52.198;9.904;2023-07-20T05:49:43;100564.00;;;15.67;92.39
16255;BME280;8235;52.198;9.904;2023-07-20T05:52:09;100573.03;;;15.66;92.45
16255;BME280;8235;52.198;9.904;2023-07-20T05:54:36;100566.81;;;15.65;92.80
16255;BME280;8235;52.198;9.904;2023-07-20T05:57:02;100567.66;;;15.66;92.44
16255;BME280;8235;52.198;9.904;2023-07-20T05:59:29;100579.38;;;15.65;92.62
16255;BME280;8235;52.198;9.904;2023-07-20T06:01:55;100575.13;;;15.62;92.56
16255;BME280;8235;52.198;9.904;2023-07-20T06:04:22;100571.56;;;15.61;92.74
16255;BME280;8235;52.198;9.904;2023-07-20T06:06:50;100580.63;;;15.60;92.87
16255;BME280;8235;52.198;9.904;2023-07-20T06:09:19;100578.91;;;15.59;92.69
16255;BME280;8235;52.198;9.904;2023-07-20T06:11:46;100574.56;;;15.58;93.04
16255;BME280;8235;52.198;9.904;2023-07-20T06:14:12;100584.44;;;15.58;93.46
16255;BME280;8235;52.198;9.904;2023-07-20T06:16:38;100579.19;;;15.56;93.53
16255;BME280;8235;52.198;9.904;2023-07-20T06:19:05;100574.69;;;15.57;93.67
16255;BME280;8235;52.198;9.904;2023-07-20T06:21:32;100581.88;;;15.56;94.03
16255;BME280;8235;52.198;9.904;2023-07-20T06:24:00;100575.38;;;15.59;95.42
16255;BME280;8235;52.198;9.904;2023-07-20T06:26:26;100588.53;;;15.62;95.55
16255;BME280;8235;52.198;9.904;2023-07-20T06:28:53;100589.13;;;15.66;96.17
16255;BME280;8235;52.198;9.904;2023-07-20T06:31:20;100590.00;;;15.66;96.55
16255;BME280;8235;52.198;9.904;2023-07-20T06:33:46;100593.41;;;15.68;96.67
16255;BME280;8235;52.198;9.904;2023-07-20T06:36:13;100586.06;;;15.70;97.37
16255;BME280;8235;52.198;9.904;2023-07-20T06:38:39;100585.81;;;15.73;97.59
16255;BME280;8235;52.198;9.904;2023-07-20T06:41:09;100596.41;;;15.75;97.52
16255;BME280;8235;52.198;9.904;2023-07-20T06:43:35;100596.28;;;15.76;97.40
16255;BME280;8235;52.198;9.904;2023-07-20T06:46:01;100599.97;;;15.75;97.65
16255;BME280;8235;52.198;9.904;2023-07-20T06:48:28;100596.28;;;15.76;97.65
16255;BME280;8235;52.198;9.904;2023-07-20T06:50:55;100593.19;;;15.81;98.20
16255;BME280;8235;52.198;9.904;2023-07-20T06:53:21;100591.22;;;15.83;97.81
16255;BME280;8235;52.198;9.904;2023-07-20T06:55:48;100589.38;;;15.83;97.66
16255;BME280;8235;52.198;9.904;2023-07-20T06:58:15;100598.31;;;15.84;97.48
16255;BME280;8235;52.198;9.904;2023-07-20T07:00:43;100594.63;;;15.85;97.41
16255;BME280;8235;52.198;9.904;2023-07-20T07:03:10;100602.56;;;15.86;97.14
16255;BME280;8235;52.198;9.904;2023-07-20T07:05:36;100603.41;;;15.87;96.80
16255;BME280;8235;52.198;9.904;2023-07-20T07:08:04;100613.03;;;15.89;96.79
16255;BME280;8235;52.198;9.904;2023-07-20T07:10:30;100611.94;;;15.92;96.71
16255;BME280;8235;52.198;9.904;2023-07-20T07:12:57;100607.97;;;15.96;96.55
16255;BME280;8235;52.198;9.904;2023-07-20T07:15:25;100612.97;;;16.01;96.21
16255;BME280;8235;52.198;9.904;2023-07-20T07:17:51;100613.09;;;15.99;95.91
16255;BME280;8235;52.198;9.904;2023-07-20T07:20:18;100616.38;;;16.03;95.71
16255;BME280;8235;52.198;9.904;2023-07-20T07:22:44;100626.00;;;16.05;95.38
16255;BME280;8235;52.198;9.904;2023-07-20T07:25:11;100618.41;;;16.10;95.39
16255;BME280;8235;52.198;9.904;2023-07-20T07:27:38;100620.41;;;16.18;95.17
16255;BME280;8235;52.198;9.904;2023-07-20T07:30:06;100615.50;;;16.23;94.75
16255;BME280;8235;52.198;9.904;2023-07-20T07:32:33;100621.34;;;16.38;95.11
16255;BME280;8235;52.198;9.904;2023-07-20T07:35:00;100619.72;;;16.56;95.96
16255;BME280;8235;52.198;9.904;2023-07-20T07:37:27;100618.69;;;16.78;96.35
16255;BME280;8235;52.198;9.904;2023-07-20T07:39:54;100615.47;;;16.93;94.55
16255;BME280;8235;52.198;9.904;2023-07-20T07:42:20;100622.00;;;17.10;94.07
16255;BME280;8235;52.198;9.904;2023-07-20T07:44:47;100619.91;;;17.23;91.32
16255;BME280;8235;52.198;9.904;2023-07-20T07:47:13;100621.75;;;17.32;88.88
16255;BME280;8235;52.198;9.904;2023-07-20T07:49:41;100619.91;;;17.43;86.94
16255;BME280;8235;52.198;9.904;2023-07-20T07:52:08;100612.38;;;17.56;86.33
16255;BME280;8235;52.198;9.904;2023-07-20T07:54:34;100624.34;;;17.73;85.18
16255;BME280;8235;52.198;9.904;2023-07-20T07:57:01;100621.47;;;17.84;82.70
16255;BME280;8235;52.198;9.904;2023-07-20T07:59:27;100623.28;;;17.93;80.54
16255;BME280;8235;52.198;9.904;2023-07-20T08:01:55;100626.53;;;18.06;79.86
16255;BME280;8235;52.198;9.904;2023-07-20T08:04:21;100635.16;;;18.19;77.54
16255;BME280;8235;52.198;9.904;2023-07-20T08:06:49;100629.84;;;18.27;75.36
16255;BME280;8235;52.198;9.904;2023-07-20T08:09:16;100624.00;;;18.42;74.65
16255;BME280;8235;52.198;9.904;2023-07-20T08:11:42;100623.09;;;18.60;74.97
16255;BME280;8235;52.198;9.904;2023-07-20T08:14:09;100627.28;;;18.72;73.12
16255;BME280;8235;52.198;9.904;2023-07-20T08:16:35;100632.63;;;18.82;72.16
16255;BME280;8235;52.198;9.904;2023-07-20T08:19:02;100625.88;;;18.96;71.80
16255;BME280;8235;52.198;9.904;2023-07-20T08:21:28;100630.38;;;19.05;70.00
16255;BME280;8235;52.198;9.904;2023-07-20T08:23:56;100629.47;;;19.14;69.83
16255;BME280;8235;52.198;9.904;2023-07-20T08:26:23;100637.88;;;19.29;69.57
16255;BME280;8235;52.198;9.904;2023-07-20T08:28:49;100634.91;;;19.50;68.65
16255;BME280;8235;52.198;9.904;2023-07-20T08:31:18;100634.75;;;19.69;66.81
16255;BME280;8235;52.198;9.904;2023-07-20T08:33:45;100640.28;;;19.85;65.59
16255;BME280;8235;52.198;9.904;2023-07-20T08:36:12;100640.00;;;19.96;64.85
16255;BME280;8235;52.198;9.904;2023-07-20T08:38:38;100637.31;;;19.96;63.91
16255;BME280;8235;52.198;9.904;2023-07-20T08:41:06;100642.41;;;19.99;63.94
16255;BME280;8235;52.198;9.904;2023-07-20T08:43:33;100644.69;;;20.12;64.37
16255;BME280;8235;52.198;9.904;2023-07-20T08:46:00;100648.00;;;20.24;63.96
16255;BME280;8235;52.198;9.904;2023-07-20T08:48:27;100644.00;;;20.36;62.45
16255;BME280;8235;52.198;9.904;2023-07-20T08:50:55;100646.09;;;20.42;61.29
16255;BME280;8235;52.198;9.904;2023-07-20T08:53:22;100640.84;;;20.40;60.51
16255;BME280;8235;52.198;9.904;2023-07-20T08:55:50;100640.84;;;20.40;60.70
16255;BME280;8235;52.198;9.904;2023-07-20T08:58:18;100645.97;;;20.52;61.22
16255;BME280;8235;52.198;9.904;2023-07-20T09:00:45;100649.91;;;20.65;60.40
16255;BME280;8235;52.198;9.904;2023-07-20T09:03:15;100641.47;;;20.68;58.35
16255;BME280;8235;52.198;9.904;2023-07-20T09:05:42;100642.84;;;20.72;58.11
16255;BME280;8235;52.198;9.904;2023-07-20T09:08:08;100638.16;;;20.83;58.18
16255;BME280;8235;52.198;9.904;2023-07-20T09:10:35;100639.75;;;21.01;57.46
16255;BME280;8235;52.198;9.904;2023-07-20T09:13:01;100637.22;;;21.08;56.58
16255;BME280;8235;52.198;9.904;2023-07-20T09:15:29;100642.66;;;21.08;54.94
16255;BME280;8235;52.198;9.904;2023-07-20T09:17:56;100639.25;;;21.14;54.30
16255;BME280;8235;52.198;9.904;2023-07-20T09:20:22;100635.09;;;21.20;52.84
16255;BME280;8235;52.198;9.904;2023-07-20T09:22:50;100631.56;;;21.27;52.13
16255;BME280;8235;52.198;9.904;2023-07-20T09:25:18;100629.16;;;21.32;51.03
16255;BME280;8235;52.198;9.904;2023-07-20T09:27:46;100631.91;;;21.40;50.81
16255;BME280;8235;52.198;9.904;2023-07-20T09:30:13;100640.06;;;21.48;51.25
16255;BME280;8235;52.198;9.904;2023-07-20T09:32:42;100635.31;;;21.59;51.11
16255;BME280;8235;52.198;9.904;2023-07-20T09:35:13;100631.56;;;21.68;51.36
16255;BME280;8235;52.198;9.904;2023-07-20T09:37:45;100637.34;;;21.81;50.76
16255;BME280;8235;52.198;9.904;2023-07-20T09:40:15;100641.75;;;21.90;49.41
16255;BME280;8235;52.198;9.904;2023-07-20T09:42:42;100637.03;;;21.84;47.86
16255;BME280;8235;52.198;9.904;2023-07-20T09:45:09;100637.16;;;21.91;47.83
16255;BME280;8235;52.198;9.904;2023-07-20T09:47:37;100639.19;;;21.97;47.66
16255;BME280;8235;52.198;9.904;2023-07-20T09:50:06;100640.22;;;22.04;47.14
16255;BME280;8235;52.198;9.904;2023-07-20T09:52:38;100634.63;;;22.13;46.63
16255;BME280;8235;52.198;9.904;2023-07-20T09:55:07;100641.25;;;22.19;46.58
16255;BME280;8235;52.198;9.904;2023-07-20T09:57:34;100638.16;;;22.30;46.19
16255;BME280;8235;52.198;9.904;2023-07-20T10:00:05;100635.56;;;22.45;45.54
16255;BME280;8235;52.198;9.904;2023-07-20T10:02:41;100644.19;;;22.57;44.89
16255;BME280;8235;52.198;9.904;2023-07-20T10:05:11;100627.19;;;22.63;45.00
16255;BME280;8235;52.198;9.904;2023-07-20T10:07:43;100637.72;;;22.66;45.09
16255;BME280;8235;52.198;9.904;2023-07-20T10:10:11;100637.19;;;22.62;44.73
16255;BME280;8235;52.198;9.904;2023-07-20T10:12:39;100642.69;;;22.54;44.46
16255;BME280;8235;52.198;9.904;2023-07-20T10:15:11;100645.22;;;22.47;44.25
16255;BME280;8235;52.198;9.904;2023-07-20T10:17:41;100645.75;;;22.51;44.63
16255;BME280;8235;52.198;9.904;2023-07-20T10:20:16;100647.75;;;22.57;44.01
16255;BME280;8235;52.198;9.904;2023-07-20T10:22:47;100636.19;;;22.63;44.00
16255;BME280;8235;52.198;9.904;2023-07-20T10:25:15;100638.56;;;22.66;42.91
16255;BME280;8235;52.198;9.904;2023-07-20T10:27:43;100634.97;;;22.74;42.36
16255;BME280;8235;52.198;9.904;2023-07-20T10:30:10;100632.75;;;22.85;41.78
16255;BME280;8235;52.198;9.904;2023-07-20T10:32:37;100630.63;;;22.96;41.81
16255;BME280;8235;52.198;9.904;2023-07-20T10:35:12;100630.59;;;23.04;41.76
16255;BME280;8235;52.198;9.904;2023-07-20T10:37:53;100636.13;;;23.18;42.77
16255;BME280;8235;52.198;9.904;2023-07-20T10:40:27;100619.59;;;23.28;41.23
16255;BME280;8235;52.198;9.904;2023-07-20T10:42:59;100621.66;;;23.26;40.59
16255;BME280;8235;52.198;9.904;2023-07-20T10:45:42;100615.53;;;23.24;41.25
16255;BME280;8235;52.198;9.904;2023-07-20T10:48:15;100618.75;;;23.28;40.58
16255;BME280;8235;52.198;9.904;2023-07-20T10:50:45;100614.81;;;23.30;40.39
16255;BME280;8235;52.198;9.904;2023-07-20T10:53:15;100614.59;;;23.40;40.26
16255;BME280;8235;52.198;9.904;2023-07-20T10:55:43;100614.41;;;23.41;39.72
16255;BME280;8235;52.198;9.904;2023-07-20T10:58:12;100622.91;;;23.38;39.99
16255;BME280;8235;52.198;9.904;2023-07-20T11:00:55;100616.03;;;23.28;39.48
16255;BME280;8235;52.198;9.904;2023-07-20T11:03:27;100619.97;;;23.25;40.00
16255;BME280;8235;52.198;9.904;2023-07-20T11:05:53;100612.84;;;23.24;40.32
16255;BME280;8235;52.198;9.904;2023-07-20T11:08:39;100618.09;;;23.26;40.70
16255;BME280;8235;52.198;9.904;2023-07-20T11:11:21;100624.06;;;23.21;40.13
16255;BME280;8235;52.198;9.904;2023-07-20T11:13:53;100621.03;;;23.16;39.93
16255;BME280;8235;52.198;9.904;2023-07-20T11:16:32;100624.94;;;23.13;40.24
16255;BME280;8235;52.198;9.904;2023-07-20T11:18:59;100621.75;;;23.10;40.22
16255;BME280;8235;52.198;9.904;2023-07-20T11:21:25;100620.16;;;23.15;40.38
16255;BME280;8235;52.198;9.904;2023-07-20T11:23:54;100614.22;;;23.20;40.53
16255;BME280;8235;52.198;9.904;2023-07-20T11:26:21;100624.41;;;23.18;40.78
16255;BME280;8235;52.198;9.904;2023-07-20T11:28:48;100628.88;;;23.11;40.72
16255;BME280;8235;52.198;9.904;2023-07-20T11:31:17;100626.19;;;23.03;40.80
16255;BME280;8235;52.198;9.904;2023-07-20T11:33:43;100623.34;;;22.96;40.90
16255;BME280;8235;52.198;9.904;2023-07-20T11:36:10;100625.38;;;22.94;41.34
16255;BME280;8235;52.198;9.904;2023-07-20T11:38:36;100627.06;;;22.95;41.50
16255;BME280;8235;52.198;9.904;2023-07-20T11:41:05;100629.97;;;22.94;41.42
16255;BME280;8235;52.198;9.904;2023-07-20T11:43:32;100614.06;;;22.91;41.62
16255;BME280;8235;52.198;9.904;2023-07-20T11:45:59;100620.19;;;22.84;42.09
16255;BME280;8235;52.198;9.904;2023-07-20T11:48:26;100617.13;;;22.79;42.28
16255;BME280;8235;52.198;9.904;2023-07-20T11:50:52;100622.88;;;22.76;42.49
16255;BME280;8235;52.198;9.904;2023-07-20T11:53:19;100614.44;;;22.79;42.52
16255;BME280;8235;52.198;9.904;2023-07-20T11:55:46;100619.00;;;22.87;42.41
16255;BME280;8235;52.198;9.904;2023-07-20T11:58:14;100614.72;;;22.93;42.05
16255;BME280;8235;52.198;9.904;2023-07-20T12:00:43;100624.50;;;23.02;42.79
16255;BME280;8235;52.198;9.904;2023-07-20T12:03:10;100618.38;;;23.08;42.77
16255;BME280;8235;52.198;9.904;2023-07-20T12:05:38;100621.09;;;23.08;42.31
16255;BME280;8235;52.198;9.904;2023-07-20T12:08:05;100615.16;;;23.04;41.81
16255;BME280;8235;52.198;9.904;2023-07-20T12:10:31;100618.91;;;23.03;41.94
16255;BME280;8235;52.198;9.904;2023-07-20T12:13:01;100624.31;;;23.03;41.83
16255;BME280;8235;52.198;9.904;2023-07-20T12:15:30;100621.44;;;23.05;42.04
16255;BME280;8235;52.198;9.904;2023-07-20T12:17:58;100622.09;;;23.07;42.24
16255;BME280;8235;52.198;9.904;2023-07-20T12:20:26;100615.66;;;23.08;41.62
16255;BME280;8235;52.198;9.904;2023-07-20T12:22:56;100621.09;;;23.08;41.76
16255;BME280;8235;52.198;9.904;2023-07-20T12:25:23;100620.41;;;23.06;41.76
16255;BME280;8235;52.198;9.904;2023-07-20T12:27:49;100612.63;;;23.03;42.24
16255;BME280;8235;52.198;9.904;2023-07-20T12:30:16;100615.50;;;23.01;42.46
16255;BME280;8235;52.198;9.904;2023-07-20T12:32:44;100606.84;;;23.06;42.60
16255;BME280;8235;52.198;9.904;2023-07-20T12:35:11;100606.75;;;23.14;42.49
16255;BME280;8235;52.198;9.904;2023-07-20T12:37:39;100600.81;;;23.18;42.81
16255;BME280;8235;52.198;9.904;2023-07-20T12:40:07;100600.09;;;23.25;42.87
16255;BME280;8235;52.198;9.904;2023-07-20T12:42:36;100596.44;;;23.32;42.72
16255;BME280;8235;52.198;9.904;2023-07-20T12:45:03;100597.44;;;23.39;42.13
16255;BME280;8235;52.198;9.904;2023-07-20T12:47:29;100593.16;;;23.45;40.97
16255;BME280;8235;52.198;9.904;2023-07-20T12:49:57;100587.16;;;23.49;41.02
16255;BME280;8235;52.198;9.904;2023-07-20T12:52:24;100593.28;;;23.51;40.35
16255;BME280;8235;52.198;9.904;2023-07-20T12:54:50;100593.59;;;23.48;40.15
16255;BME280;8235;52.198;9.904;2023-07-20T12:57:17;100592.97;;;23.46;40.63
16255;BME280;8235;52.198;9.904;2023-07-20T12:59:44;100596.31;;;23.48;40.72
16255;BME280;8235;52.198;9.904;2023-07-20T13:02:10;100588.00;;;23.50;40.00
16255;BME280;8235;52.198;9.904;2023-07-20T13:04:37;100580.69;;;23.50;40.09